Golden Valley, Nevada
Current Conditions -  °F | °C
As of 10:55 AM on Friday 31 Oct 2014 (Local Time) from KRTS Reporting Station
Clear Clear  
Wind Chill: 59°   Ceiling: Unl
Heat Index: 59°   Visibility: 10mi
Dew Point: 28°   Wind: 10mph
Humidity: 31%   Direction: 160°SSE
Pressure: 29.86"   Gusts: 17mph
Location:  39.7378°N, 119.889°W
Report Text: KRTS 311755Z AUTO 16009G15KT 10SM CLR 15/M02 A2986 RMK AO2
Loading
Personal Weather Stations






























Interactive Weather Map
Tropical Storm Tracking
New forecast layout! Learn more

10-Day Weather Forecast

Advertisements
Track Severe Weather on mobile